createdAt,value
2023-02-26T00:03:34.703Z,2.70
2023-02-26T00:08:39.393Z,2.60
2023-02-26T00:13:43.078Z,2.50
2023-02-26T00:18:45.574Z,2.40
2023-02-26T00:23:47.615Z,2.40
2023-02-26T00:28:50.115Z,2.40
2023-02-26T00:33:53.654Z,2.40
2023-02-26T00:38:59.487Z,2.40
2023-02-26T00:44:01.581Z,2.50
2023-02-26T00:49:23.851Z,2.50
2023-02-26T00:54:27.963Z,2.50
2023-02-26T00:59:29.898Z,2.50
2023-02-26T01:04:31.926Z,2.50
2023-02-26T01:09:35.565Z,2.50
2023-02-26T01:14:38.483Z,2.50
2023-02-26T01:20:10.241Z,2.50
2023-02-26T01:25:16.643Z,2.40
2023-02-26T01:30:19.970Z,2.40
2023-02-26T01:35:32.634Z,2.50
2023-02-26T01:41:07.967Z,2.40
2023-02-26T01:46:23.520Z,2.40
2023-02-26T01:51:46.002Z,2.40
2023-02-26T01:56:51.798Z,2.30
2023-02-26T02:01:55.126Z,2.30
2023-02-26T02:06:57.051Z,2.30
2023-02-26T02:12:04.981Z,2.30
2023-02-26T02:17:35.493Z,2.30
2023-02-26T02:23:12.282Z,2.30
2023-02-26T02:28:51.490Z,2.20
2023-02-26T02:34:06.868Z,2.30
2023-02-26T02:39:13.990Z,2.20
2023-02-26T02:44:18.431Z,2.20
2023-02-26T02:50:02.301Z,2.20
2023-02-26T02:55:09.744Z,2.20
2023-02-26T03:00:12.965Z,2.20
2023-02-26T03:05:14.975Z,2.10
2023-02-26T03:10:17.927Z,2.10
2023-02-26T03:15:44.829Z,2.10
2023-02-26T03:21:03.799Z,2.10
2023-02-26T03:26:20.098Z,2.10
2023-02-26T03:31:29.476Z,2.10
2023-02-26T03:36:37.458Z,2.00
2023-02-26T03:41:57.114Z,2.00
2023-02-26T03:47:01.765Z,2.00
2023-02-26T03:52:04.816Z,2.00
2023-02-26T03:57:06.719Z,1.90
2023-02-26T04:02:14.176Z,1.90
2023-02-26T04:07:17.487Z,1.90
2023-02-26T04:12:22.312Z,1.90
2023-02-26T04:17:24.150Z,1.80
2023-02-26T04:22:26.183Z,1.70
2023-02-26T04:27:28.058Z,1.70
2023-02-26T04:32:31.147Z,1.70
2023-02-26T04:37:33.069Z,1.60
2023-02-26T04:42:34.915Z,1.60
2023-02-26T04:47:36.929Z,1.60
2023-02-26T04:52:38.748Z,1.50
2023-02-26T04:57:40.740Z,1.50
2023-02-26T05:02:42.596Z,1.50
2023-02-26T05:07:44.449Z,1.50
2023-02-26T05:12:46.331Z,1.50
2023-02-26T05:17:48.187Z,1.50
2023-02-26T05:22:50.026Z,1.50
2023-02-26T05:27:51.964Z,1.50
2023-02-26T05:32:54.814Z,1.50
2023-02-26T05:37:56.686Z,1.40
2023-02-26T05:42:58.508Z,1.40
2023-02-26T05:48:01.099Z,1.40
2023-02-26T05:53:02.928Z,1.40
2023-02-26T05:58:04.754Z,1.30
2023-02-26T06:03:06.665Z,1.40
2023-02-26T06:08:08.622Z,1.40
2023-02-26T06:13:10.507Z,1.40
2023-02-26T06:18:12.400Z,1.50
2023-02-26T06:23:17.359Z,1.50
2023-02-26T06:28:19.946Z,1.50
2023-02-26T06:33:21.821Z,1.50
2023-02-26T06:38:23.956Z,1.60
2023-02-26T06:43:26.008Z,1.60
2023-02-26T06:48:28.320Z,1.70
2023-02-26T06:53:30.331Z,1.80
2023-02-26T06:58:32.286Z,1.80
2023-02-26T07:03:34.090Z,2.00
2023-02-26T07:08:36.409Z,2.00
2023-02-26T07:13:38.280Z,2.00
2023-02-26T07:18:40.328Z,2.10
2023-02-26T07:23:42.225Z,2.20
2023-02-26T07:28:44.168Z,2.20
2023-02-26T07:33:46.018Z,2.30
2023-02-26T07:38:47.971Z,2.40
2023-02-26T07:43:50.060Z,2.50
2023-02-26T07:48:51.860Z,2.60
2023-02-26T07:53:53.676Z,2.80
2023-02-26T07:58:56.046Z,2.90
2023-02-26T08:03:57.844Z,3.30
2023-02-26T08:08:59.722Z,3.70
2023-02-26T08:14:01.509Z,4.10
2023-02-26T08:19:03.377Z,4.40
2023-02-26T08:24:05.572Z,4.70
2023-02-26T08:29:08.152Z,4.70
2023-02-26T08:34:10.015Z,4.50
2023-02-26T08:39:11.893Z,4.20
2023-02-26T08:44:13.690Z,4.00
2023-02-26T08:49:15.500Z,4.20
2023-02-26T08:54:17.319Z,4.40
2023-02-26T08:59:19.396Z,4.60
2023-02-26T09:04:21.265Z,4.70
2023-02-26T09:09:23.125Z,5.10
2023-02-26T09:14:24.973Z,5.50
2023-02-26T09:19:26.955Z,6.00
2023-02-26T09:24:28.815Z,6.60
2023-02-26T09:29:30.781Z,7.00
2023-02-26T09:34:32.648Z,7.00
2023-02-26T09:39:35.448Z,7.30
2023-02-26T09:44:38.601Z,7.50
2023-02-26T09:49:55.950Z,7.50
2023-02-26T09:55:05.205Z,7.20
2023-02-26T10:00:24.844Z,6.70
2023-02-26T10:05:39.701Z,7.20
2023-02-26T10:11:08.595Z,7.80
2023-02-26T10:16:17.086Z,7.40
2023-02-26T10:21:30.393Z,7.20
2023-02-26T10:27:10.732Z,7.00
2023-02-26T10:32:24.156Z,6.60
2023-02-26T10:37:48.517Z,6.50
2023-02-26T10:42:58.370Z,6.10
2023-02-26T10:48:13.940Z,6.00
2023-02-26T10:53:15.816Z,6.70
2023-02-26T10:58:21.371Z,6.70
2023-02-26T11:03:39.377Z,6.10
2023-02-26T11:08:44.146Z,5.60
2023-02-26T11:13:48.737Z,5.50
2023-02-26T11:18:54.509Z,5.40
2023-02-26T11:24:05.428Z,5.20
2023-02-26T11:29:07.421Z,5.00
2023-02-26T11:34:11.966Z,4.80
2023-02-26T11:39:13.728Z,4.70
2023-02-26T11:44:18.688Z,4.80
2023-02-26T11:49:25.748Z,4.70
2023-02-26T11:54:29.169Z,4.70
2023-02-26T11:59:32.208Z,4.70
2023-02-26T12:04:34.106Z,4.80
2023-02-26T12:09:37.891Z,4.80
2023-02-26T12:15:11.224Z,4.70
2023-02-26T12:20:51.781Z,4.80
2023-02-26T12:26:00.148Z,4.80
2023-02-26T12:31:15.698Z,4.90
2023-02-26T12:36:36.326Z,4.90
2023-02-26T12:42:03.841Z,5.00
2023-02-26T12:47:25.860Z,5.10
2023-02-26T12:52:31.131Z,5.30
2023-02-26T12:58:01.868Z,5.70
2023-02-26T13:03:40.432Z,5.80
2023-02-26T13:08:51.083Z,5.50
2023-02-26T13:14:03.234Z,5.30
2023-02-26T13:19:20.653Z,5.20
2023-02-26T13:24:27.363Z,5.10
2023-02-26T13:29:34.013Z,5.10
2023-02-26T13:34:58.609Z,5.10
2023-02-26T13:40:12.690Z,5.20
2023-02-26T13:45:40.734Z,5.20
2023-02-26T13:51:07.467Z,5.20
2023-02-26T13:56:21.336Z,5.10
2023-02-26T14:01:35.767Z,4.80
2023-02-26T14:06:43.730Z,4.50
2023-02-26T14:11:59.671Z,4.20
2023-02-26T14:17:08.412Z,4.20
2023-02-26T14:22:21.095Z,4.30
2023-02-26T14:27:30.781Z,4.40
2023-02-26T14:32:56.303Z,4.40
2023-02-26T14:38:22.475Z,4.20
2023-02-26T14:43:35.821Z,4.10
2023-02-26T14:48:38.785Z,4.10
2023-02-26T14:54:22.312Z,3.90
2023-02-26T14:59:35.086Z,3.80
2023-02-26T15:05:11.704Z,3.70
2023-02-26T15:10:24.665Z,3.70
2023-02-26T15:15:35.268Z,3.70
2023-02-26T15:20:44.147Z,3.70
2023-02-26T15:25:47.520Z,3.70
2023-02-26T15:30:49.684Z,3.70
2023-02-26T15:35:53.513Z,3.70
2023-02-26T15:41:00.524Z,3.70
2023-02-26T15:46:03.612Z,3.60
2023-02-26T15:51:08.494Z,3.50
2023-02-26T15:56:30.450Z,3.50
2023-02-26T16:01:32.928Z,3.40
2023-02-26T16:06:37.700Z,3.40
2023-02-26T16:11:41.421Z,3.30
2023-02-26T16:16:51.975Z,3.30
2023-02-26T16:21:55.236Z,3.20
2023-02-26T16:27:01.885Z,3.10
2023-02-26T16:32:05.211Z,3.00
2023-02-26T16:37:22.418Z,3.00
2023-02-26T16:42:36.823Z,2.90
2023-02-26T16:47:40.286Z,2.80
2023-02-26T16:52:42.333Z,2.80
2023-02-26T16:57:45.590Z,2.80
2023-02-26T17:02:48.771Z,2.70
2023-02-26T17:08:13.690Z,2.70
2023-02-26T17:13:24.928Z,2.60
2023-02-26T17:18:26.894Z,2.60
2023-02-26T17:23:31.210Z,2.50
2023-02-26T17:28:36.079Z,2.50
2023-02-26T17:33:40.512Z,2.50
2023-02-26T17:38:46.988Z,2.50
2023-02-26T17:43:48.832Z,2.50
2023-02-26T17:48:50.619Z,2.50
2023-02-26T17:53:54.535Z,2.40
2023-02-26T17:58:57.837Z,2.40
2023-02-26T18:04:01.074Z,2.30
2023-02-26T18:09:07.960Z,2.20
2023-02-26T18:14:11.046Z,2.20
2023-02-26T18:19:15.037Z,2.10
2023-02-26T18:24:16.909Z,2.10
2023-02-26T18:29:18.955Z,2.10
2023-02-26T18:34:20.740Z,2.00
2023-02-26T18:39:25.051Z,1.90
2023-02-26T18:44:28.511Z,1.90
2023-02-26T18:49:30.502Z,1.90
2023-02-26T18:54:32.340Z,2.00
2023-02-26T18:59:34.313Z,2.00
2023-02-26T19:04:36.453Z,2.10
2023-02-26T19:09:38.405Z,2.00
2023-02-26T19:14:40.244Z,2.00
2023-02-26T19:19:42.478Z,1.90
2023-02-26T19:24:44.612Z,1.80
2023-02-26T19:29:46.618Z,1.60
2023-02-26T19:34:48.407Z,1.60
2023-02-26T19:39:50.295Z,1.50
2023-02-26T19:44:52.421Z,1.40
2023-02-26T19:49:54.218Z,1.40
2023-02-26T19:54:56.098Z,1.30
2023-02-26T19:59:59.573Z,1.30
2023-02-26T20:05:01.366Z,1.20
2023-02-26T20:10:10.287Z,1.20
2023-02-26T20:15:12.507Z,1.20
2023-02-26T20:20:14.439Z,1.20
2023-02-26T20:25:16.403Z,1.20
2023-02-26T20:30:19.099Z,1.30
2023-02-26T20:35:20.961Z,1.30
2023-02-26T20:40:23.016Z,1.30
2023-02-26T20:45:24.800Z,1.30
2023-02-26T20:50:27.514Z,1.40
2023-02-26T20:55:29.383Z,1.30
2023-02-26T21:00:31.740Z,1.40
2023-02-26T21:05:35.254Z,1.40
2023-02-26T21:10:37.112Z,1.40
2023-02-26T21:15:38.966Z,1.50
2023-02-26T21:20:40.784Z,1.50
2023-02-26T21:25:42.704Z,1.50
2023-02-26T21:30:44.589Z,1.50
2023-02-26T21:35:51.611Z,1.50
2023-02-26T21:40:54.375Z,1.40
2023-02-26T21:45:56.221Z,1.40
2023-02-26T21:50:59.746Z,1.40
2023-02-26T21:56:02.113Z,1.30
2023-02-26T22:01:04.893Z,1.30
2023-02-26T22:06:06.893Z,1.30
2023-02-26T22:11:08.792Z,1.20
2023-02-26T22:16:10.865Z,1.20
2023-02-26T22:21:12.672Z,1.20
2023-02-26T22:26:14.476Z,1.20
2023-02-26T22:31:16.327Z,1.20
2023-02-26T22:36:18.180Z,1.20
2023-02-26T22:41:20.097Z,1.10
2023-02-26T22:46:24.563Z,1.10
2023-02-26T22:51:29.402Z,1.10
2023-02-26T22:56:31.881Z,1.00
2023-02-26T23:01:33.852Z,1.00
2023-02-26T23:06:36.617Z,1.00
2023-02-26T23:11:38.545Z,1.00
2023-02-26T23:16:40.751Z,0.90
2023-02-26T23:21:42.524Z,0.90
2023-02-26T23:26:44.907Z,0.80
2023-02-26T23:31:46.886Z,0.80
2023-02-26T23:36:48.894Z,0.80
2023-02-26T23:41:50.752Z,0.70
2023-02-26T23:46:52.960Z,0.70
2023-02-26T23:51:54.982Z,0.70
2023-02-26T23:56:56.838Z,0.60
